Time;durP1;ratioP1;P1;durP2;ratioP2;P2;SDS_P1;SDS_P2;PMS_P1;PMS_P2;Temp;Humidity;BMP_temperature;BMP_pressure;BME280_temperature;BME280_humidity;BME280_pressure;Samples;Min_cycle;Max_cycle;Signal;HPM_P1;HPM_P2
2023/06/07 00:14:04;;;;;;;0.32;0.32;;;;;;;15.83;63.04;102264.50;5037724;28;20047;-80
2023/06/07 00:16:31;;;;;;;0.10;0.10;;;;;;;15.80;62.75;102264.53;5033064;28;20049;-80
2023/06/07 00:18:57;;;;;;;1.95;1.85;;;;;;;15.77;62.98;102264.59;5033597;28;20080;-79
2023/06/07 00:21:23;;;;;;;0.30;0.30;;;;;;;15.74;63.07;102263.75;5035492;28;20495;-80
2023/06/07 00:23:50;;;;;;;0.13;0.13;;;;;;;15.70;63.21;102268.28;5035895;28;20045;-80
2023/06/07 00:26:16;;;;;;;0.30;0.30;;;;;;;15.65;62.79;102262.13;5034512;28;20030;-80
2023/06/07 00:28:42;;;;;;;0.10;0.10;;;;;;;15.52;64.01;102259.69;5035190;28;20088;-80
2023/06/07 00:31:08;;;;;;;2.72;0.65;;;;;;;15.55;63.06;102263.22;5034918;28;20036;-79
2023/06/07 00:33:34;;;;;;;0.10;0.10;;;;;;;15.47;64.04;102258.91;5034541;28;20060;-80
2023/06/07 00:36:00;;;;;;;0.20;0.20;;;;;;;15.49;62.92;102266.91;5032831;28;20904;-80
2023/06/07 00:38:27;;;;;;;0.25;0.25;;;;;;;15.45;63.17;102258.06;5033958;28;20039;-80
2023/06/07 00:40:53;;;;;;;0.22;0.22;;;;;;;15.39;63.70;102260.84;5040474;28;20084;-80
2023/06/07 00:43:19;;;;;;;0.63;0.63;;;;;;;15.39;63.06;102255.50;5032466;28;20021;-80
2023/06/07 00:45:45;;;;;;;1.25;0.93;;;;;;;15.36;63.72;102258.22;5035398;28;20036;-80
2023/06/07 00:48:11;;;;;;;0.10;0.10;;;;;;;15.29;63.51;102256.53;5036034;28;20060;-79
2023/06/07 00:50:38;;;;;;;0.00;0.00;;;;;;;15.30;63.30;102255.66;5034834;28;20470;-80
2023/06/07 00:53:11;;;;;;;5.35;1.38;;;;;;;15.27;63.25;102267.25;5051885;28;20080;-80
2023/06/07 00:55:38;;;;;;;0.00;0.00;;;;;;;15.23;64.31;102262.00;5053141;28;20041;-79
2023/06/07 00:58:04;;;;;;;0.28;0.28;;;;;;;15.23;64.05;102257.56;5044673;28;20069;-80
2023/06/07 01:00:31;;;;;;;0.38;0.38;;;;;;;15.20;64.23;102261.16;5049364;28;20030;-80
2023/06/07 01:02:57;;;;;;;0.00;0.00;;;;;;;15.14;64.30;102255.00;5055648;28;20048;-80
2023/06/07 01:05:23;;;;;;;0.10;0.10;;;;;;;15.13;64.46;102256.81;5042851;28;20057;-80
2023/06/07 01:07:50;;;;;;;0.10;0.10;;;;;;;15.12;64.24;102251.50;5052292;28;20036;-80
2023/06/07 01:10:17;;;;;;;0.75;0.75;;;;;;;15.12;63.87;102260.38;5049328;28;20033;-79
2023/06/07 01:12:45;;;;;;;0.05;0.05;;;;;;;15.12;63.88;102255.06;5050340;28;20100;-80
2023/06/07 01:15:13;;;;;;;0.20;0.20;;;;;;;15.07;64.32;102246.25;5039024;28;20029;-80
2023/06/07 01:17:44;;;;;;;0.60;0.60;;;;;;;15.06;64.06;102248.94;5052289;28;20083;-79
2023/06/07 01:20:13;;;;;;;0.17;0.17;;;;;;;15.03;64.19;102241.88;5040613;28;20060;-79
2023/06/07 01:22:44;;;;;;;0.15;0.15;;;;;;;15.03;63.81;102244.53;5042080;28;20034;-80
2023/06/07 01:25:11;;;;;;;0.22;0.22;;;;;;;14.99;64.45;102248.13;5036626;28;20034;-80
2023/06/07 01:27:39;;;;;;;0.47;0.47;;;;;;;14.94;64.86;102244.66;5039641;28;20156;-79
2023/06/07 01:30:09;;;;;;;0.85;0.85;;;;;;;14.97;64.69;102247.31;5035144;28;20029;-80
2023/06/07 01:32:36;;;;;;;0.20;0.20;;;;;;;14.94;65.00;102256.25;5039796;28;20033;-80
2023/06/07 01:35:04;;;;;;;0.00;0.00;;;;;;;14.94;65.50;102245.56;5045382;28;20025;-80
2023/06/07 01:37:31;;;;;;;0.95;0.95;;;;;;;14.94;64.94;102248.25;5046422;28;20052;-79
2023/06/07 01:39:58;;;;;;;0.10;0.10;;;;;;;14.93;65.03;102254.47;5040544;28;20044;-79
2023/06/07 01:42:24;;;;;;;0.00;0.00;;;;;;;14.91;64.72;102258.06;5037353;28;20544;-79
2023/06/07 01:44:52;;;;;;;0.00;0.00;;;;;;;14.84;65.29;102255.50;5036677;28;20097;-80
2023/06/07 01:47:19;;;;;;;0.10;0.10;;;;;;;14.87;64.37;102250.09;5044383;28;20088;-80
2023/06/07 01:49:45;;;;;;;0.00;0.00;;;;;;;14.86;64.66;102250.13;5039805;28;20037;-79
2023/06/07 01:52:11;;;;;;;0.10;0.10;;;;;;;14.83;64.78;102251.06;5039109;28;20049;-79
2023/06/07 01:54:38;;;;;;;0.10;0.10;;;;;;;14.83;64.38;102247.53;5042430;28;20091;-80
2023/06/07 01:59:57;;;;;;;0.00;0.00;;;;;;;14.79;63.93;102237.78;5070647;28;20422;-79
2023/06/07 02:05:06;;;;;;;0.10;0.10;;;;;;;14.66;65.15;102237.09;5103532;27;20385;-78
2023/06/07 02:07:41;;;;;;;0.73;0.73;;;;;;;14.66;65.00;102242.44;5098963;28;20071;-77
2023/06/07 02:10:08;;;;;;;0.17;0.17;;;;;;;14.61;64.85;102238.91;5087753;28;20485;-78
2023/06/07 02:12:35;;;;;;;0.20;0.20;;;;;;;14.59;65.30;102233.59;5090807;28;20055;-76
2023/06/07 02:15:03;;;;;;;0.17;0.17;;;;;;;14.55;65.19;102238.13;5086538;28;20409;-78
2023/06/07 02:17:29;;;;;;;0.25;0.25;;;;;;;14.53;65.26;102234.56;5090584;28;20040;-77
2023/06/07 02:19:55;;;;;;;0.17;0.17;;;;;;;14.53;65.04;102237.25;5087802;28;20048;-77
2023/06/07 02:22:21;;;;;;;0.35;0.35;;;;;;;14.54;64.67;102238.09;5090087;28;20074;-78
2023/06/07 02:24:47;;;;;;;0.10;0.10;;;;;;;14.54;64.51;102236.34;5088983;28;20116;-78
2023/06/07 02:27:13;;;;;;;0.30;0.30;;;;;;;14.48;65.05;102239.09;5089586;28;20054;-78
2023/06/07 02:29:39;;;;;;;0.10;0.10;;;;;;;14.46;65.28;102235.56;5087884;28;20028;-77
2023/06/07 02:32:06;;;;;;;0.10;0.10;;;;;;;14.45;65.80;102235.59;5088587;28;20024;-77
2023/06/07 02:34:32;;;;;;;0.10;0.10;;;;;;;14.42;65.87;102230.28;5088458;28;20700;-77
2023/06/07 02:36:58;;;;;;;0.40;0.40;;;;;;;14.43;65.29;102234.72;5087477;28;20037;-77
2023/06/07 02:39:24;;;;;;;0.00;0.00;;;;;;;14.41;65.21;102234.75;5087008;28;20147;-77
2023/06/07 02:41:51;;;;;;;0.10;0.10;;;;;;;14.35;65.76;102241.03;5086981;28;20032;-78
2023/06/07 02:44:17;;;;;;;0.15;0.15;;;;;;;14.33;66.17;102236.63;5088308;28;20106;-75
2023/06/07 02:46:43;;;;;;;2.42;0.90;;;;;;;14.30;66.26;102229.53;5087385;28;20059;-77
2023/06/07 02:49:09;;;;;;;0.00;0.00;;;;;;;14.29;66.07;102233.09;5085483;28;20417;-76
2023/06/07 02:51:37;;;;;;;0.00;0.00;;;;;;;14.23;66.53;102231.44;5089765;28;20081;-76
2023/06/07 02:54:03;;;;;;;0.00;0.00;;;;;;;14.28;66.36;102231.38;5091079;28;20028;-75
2023/06/07 02:56:32;;;;;;;0.00;0.00;;;;;;;14.21;66.96;102229.69;5089758;28;20454;-77
2023/06/07 02:58:58;;;;;;;0.10;0.10;;;;;;;14.26;65.92;102233.16;5088417;28;20397;-77
2023/06/07 03:01:27;;;;;;;0.10;0.10;;;;;;;14.23;66.57;102236.75;5088529;28;20036;-78
2023/06/07 03:03:53;;;;;;;0.20;0.20;;;;;;;14.19;66.99;102235.03;5091052;28;20532;-78
2023/06/07 03:06:19;;;;;;;0.32;0.32;;;;;;;14.23;66.31;102235.84;5089122;28;20024;-76
2023/06/07 03:08:45;;;;;;;0.10;0.10;;;;;;;14.21;66.30;102238.53;5087835;28;20021;-76
2023/06/07 03:11:11;;;;;;;0.08;0.08;;;;;;;14.21;66.35;102233.22;5088877;28;20144;-76
2023/06/07 03:13:37;;;;;;;0.05;0.05;;;;;;;14.17;66.75;102242.16;5083573;28;20115;-75
2023/06/07 03:16:03;;;;;;;0.05;0.05;;;;;;;14.21;66.29;102238.53;5073771;28;20032;-74
2023/06/07 03:18:31;;;;;;;0.00;0.00;;;;;;;14.21;66.57;102230.56;5072257;28;20024;-76
2023/06/07 03:20:57;;;;;;;0.10;0.10;;;;;;;14.22;66.85;102235.00;5068831;28;20028;-75
2023/06/07 03:23:23;;;;;;;0.20;0.20;;;;;;;14.23;66.60;102236.75;5068587;28;20178;-76
2023/06/07 03:25:49;;;;;;;0.20;0.20;;;;;;;14.24;66.48;102233.19;5067492;28;20036;-77
2023/06/07 03:28:15;;;;;;;0.03;0.03;;;;;;;14.26;66.76;102224.31;5067350;28;20082;-76
2023/06/07 03:30:41;;;;;;;0.10;0.10;;;;;;;14.26;66.23;102230.50;5069958;28;20032;-75
2023/06/07 03:33:07;;;;;;;0.10;0.10;;;;;;;14.25;66.74;102228.72;5068876;28;20045;-77
2023/06/07 03:35:33;;;;;;;0.20;0.20;;;;;;;14.24;65.85;102232.28;5068627;28;20032;-77
2023/06/07 03:37:59;;;;;;;0.38;0.38;;;;;;;14.26;66.50;102230.50;5068572;28;20036;-75
2023/06/07 03:40:26;;;;;;;0.10;0.10;;;;;;;14.22;66.81;102229.66;5083329;28;20111;-76
2023/06/07 03:42:52;;;;;;;0.10;0.10;;;;;;;14.23;66.74;102235.84;5080974;28;20025;-76
2023/06/07 03:45:18;;;;;;;0.05;0.05;;;;;;;14.26;66.77;102229.63;5072816;28;20035;-75
2023/06/07 03:47:44;;;;;;;0.00;0.00;;;;;;;14.21;67.32;102227.88;5068614;28;20044;-76
2023/06/07 03:50:10;;;;;;;0.10;0.10;;;;;;;14.20;66.83;102234.13;5073203;28;20028;-74
2023/06/07 03:52:36;;;;;;;0.35;0.35;;;;;;;14.21;66.24;102233.22;5068559;28;20031;-76
2023/06/07 03:55:02;;;;;;;0.20;0.20;;;;;;;14.26;66.10;102229.63;5072937;28;20029;-76
2023/06/07 03:57:28;;;;;;;0.10;0.10;;;;;;;14.19;67.03;102244.81;5073873;28;20032;-76
2023/06/07 03:59:56;;;;;;;0.10;0.10;;;;;;;14.21;66.56;102230.56;5074814;28;20111;-76
2023/06/07 04:02:22;;;;;;;0.10;0.10;;;;;;;14.20;66.49;102234.13;5077054;28;20290;-76
2023/06/07 04:04:49;;;;;;;0.10;0.10;;;;;;;14.24;66.50;102233.19;5074514;28;20031;-76
2023/06/07 04:07:16;;;;;;;0.10;0.10;;;;;;;14.25;66.44;102236.72;5074936;28;20106;-76
2023/06/07 04:09:42;;;;;;;0.10;0.10;;;;;;;14.26;66.38;102237.63;5068756;28;20028;-77
2023/06/07 04:12:08;;;;;;;0.10;0.10;;;;;;;14.22;66.30;102239.44;5066679;28;20486;-74
2023/06/07 04:14:34;;;;;;;0.30;0.30;;;;;;;14.22;66.73;102240.31;5070457;28;20032;-75
2023/06/07 04:17:01;;;;;;;0.17;0.17;;;;;;;14.19;66.97;102243.03;5066549;28;20494;-76
2023/06/07 04:19:27;;;;;;;0.00;0.00;;;;;;;14.26;66.10;102245.63;5069349;28;20033;-77
2023/06/07 04:21:53;;;;;;;0.10;0.10;;;;;;;14.28;66.03;102251.81;5070003;28;20043;-76
2023/06/07 04:24:19;;;;;;;0.10;0.10;;;;;;;14.24;66.78;102243.84;5066391;28;20024;-76
2023/06/07 04:26:48;;;;;;;0.80;0.57;;;;;;;14.26;66.69;102245.63;5062896;28;20086;-76
2023/06/07 04:29:14;;;;;;;5.93;0.50;;;;;;;14.26;66.91;102246.50;5069038;28;20074;-76
2023/06/07 04:31:41;;;;;;;0.85;0.85;;;;;;;14.27;67.01;102252.69;5065190;28;20028;-75
2023/06/07 04:34:09;;;;;;;0.10;0.10;;;;;;;14.34;65.76;102257.06;5068274;28;20104;-77
2023/06/07 04:36:37;;;;;;;0.10;0.10;;;;;;;14.38;66.18;102256.09;5064603;28;20086;-77
2023/06/07 04:39:05;;;;;;;0.00;0.00;;;;;;;14.37;66.01;102255.22;5069338;28;20401;-77
2023/06/07 04:41:33;;;;;;;0.10;0.10;;;;;;;14.35;67.15;102253.50;5069633;28;20028;-78
2023/06/07 04:44:01;;;;;;;0.10;0.10;;;;;;;14.47;66.03;102249.78;5067965;28;20024;-75
2023/06/07 04:46:27;;;;;;;0.20;0.20;;;;;;;14.51;66.65;102257.72;5066470;28;20450;-77
2023/06/07 04:48:55;;;;;;;0.10;0.10;;;;;;;14.48;66.89;102252.44;5074002;28;20115;-76
2023/06/07 04:51:22;;;;;;;0.10;0.10;;;;;;;14.56;66.51;102255.84;5073408;28;20089;-78
2023/06/07 04:53:49;;;;;;;0.08;0.08;;;;;;;14.62;66.31;102249.56;5074856;28;20029;-77
2023/06/07 04:56:15;;;;;;;0.00;0.00;;;;;;;14.68;66.59;102253.97;5066397;28;20541;-75
2023/06/07 04:58:41;;;;;;;0.10;0.10;;;;;;;14.68;66.78;102248.63;5069611;28;20052;-75
2023/06/07 05:01:10;;;;;;;0.00;0.00;;;;;;;14.73;66.57;102262.78;5068326;28;20043;-76
2023/06/07 05:03:40;;;;;;;0.10;0.10;;;;;;;14.78;65.90;102252.03;5086701;28;20498;-77
2023/06/07 05:06:06;;;;;;;0.03;0.03;;;;;;;14.80;65.87;102251.09;5081192;28;20024;-77
2023/06/07 05:08:32;;;;;;;0.10;0.10;;;;;;;14.80;66.38;102253.75;5091029;28;20031;-77
2023/06/07 05:10:58;;;;;;;0.05;0.05;;;;;;;14.84;66.59;102252.84;5082333;28;20035;-77
2023/06/07 05:13:24;;;;;;;0.00;0.00;;;;;;;14.92;65.87;102246.50;5069221;28;20077;-75
2023/06/07 05:15:52;;;;;;;0.10;0.10;;;;;;;14.97;65.83;102240.16;5066172;28;20028;-76
2023/06/07 05:18:19;;;;;;;0.10;0.10;;;;;;;14.99;65.62;102248.13;5070354;28;20028;-77
2023/06/07 05:20:46;;;;;;;1.20;0.40;;;;;;;15.00;65.77;102244.56;5068754;28;20571;-77
2023/06/07 05:23:16;;;;;;;0.08;0.08;;;;;;;15.02;65.19;102248.09;5075176;28;20482;-77
2023/06/07 05:25:43;;;;;;;2.00;1.88;;;;;;;15.03;66.18;102249.88;5082067;28;20028;-78
2023/06/07 05:28:10;;;;;;;0.10;0.10;;;;;;;15.07;65.42;102240.91;5088481;28;20102;-77
2023/06/07 05:30:36;;;;;;;0.77;0.77;;;;;;;15.12;65.41;102249.72;5076351;28;20028;-75
2023/06/07 05:33:02;;;;;;;0.52;0.52;;;;;;;15.13;65.47;102248.81;5092047;28;20020;-77
2023/06/07 05:35:28;;;;;;;0.05;0.05;;;;;;;15.20;65.27;102253.16;5075759;28;20383;-77
2023/06/07 05:37:54;;;;;;;0.00;0.00;;;;;;;15.17;65.49;102247.84;5075377;28;20032;-77
2023/06/07 05:40:20;;;;;;;0.13;0.13;;;;;;;15.22;65.04;102257.59;5073315;28;20024;-77
2023/06/07 05:42:49;;;;;;;0.10;0.10;;;;;;;15.17;65.01;102253.19;5079911;28;20092;-77
2023/06/07 05:45:15;;;;;;;0.10;0.10;;;;;;;15.15;65.08;102252.34;5078218;28;20028;-77
2023/06/07 05:47:43;;;;;;;0.20;0.20;;;;;;;15.17;64.84;102253.19;5074770;28;20035;-75
2023/06/07 05:50:10;;;;;;;0.10;0.10;;;;;;;15.15;64.48;102256.78;5079303;28;20399;-78
2023/06/07 05:52:37;;;;;;;0.10;0.10;;;;;;;15.02;65.76;102256.97;5088800;28;20434;-78
2023/06/07 05:55:04;;;;;;;0.10;0.10;;;;;;;15.12;65.06;102268.41;5074886;28;20024;-78
2023/06/07 05:57:30;;;;;;;0.10;0.10;;;;;;;15.16;65.01;102266.56;5077466;28;20059;-78
2023/06/07 05:59:56;;;;;;;0.05;0.05;;;;;;;15.17;65.11;102269.19;5079964;28;20058;-75
2023/06/07 06:02:23;;;;;;;0.10;0.10;;;;;;;15.23;64.90;102267.31;5084540;28;20025;-75
2023/06/07 06:04:51;;;;;;;0.25;0.25;;;;;;;15.25;64.96;102260.19;5071381;28;20028;-78
2023/06/07 06:07:18;;;;;;;0.10;0.10;;;;;;;15.31;65.11;102271.63;5077992;28;20028;-79
2023/06/07 06:09:44;;;;;;;0.08;0.08;;;;;;;15.32;65.07;102267.19;5077150;28;20053;-78
2023/06/07 06:12:10;;;;;;;0.20;0.20;;;;;;;15.48;64.65;102260.66;5079170;28;20038;-77
2023/06/07 06:14:37;;;;;;;0.10;0.10;;;;;;;15.61;64.85;102268.47;5075786;28;20074;-77
2023/06/07 06:17:04;;;;;;;0.10;0.10;;;;;;;15.69;64.25;102266.53;5075306;28;20033;-78
2023/06/07 06:19:30;;;;;;;0.10;0.10;;;;;;;15.77;64.48;102267.25;5076490;28;20103;-78
2023/06/07 06:21:57;;;;;;;0.63;0.55;;;;;;;16.04;64.17;102277.47;5075489;28;20036;-77
2023/06/07 06:24:23;;;;;;;1.10;0.22;;;;;;;16.18;63.80;102270.94;5069885;28;20039;-78
2023/06/07 06:26:50;;;;;;;0.10;0.10;;;;;;;16.31;63.58;102260.88;5069176;28;20035;-76
2023/06/07 06:29:17;;;;;;;0.00;0.00;;;;;;;16.50;63.15;102260.47;5069366;28;20029;-77
2023/06/07 06:31:43;;;;;;;0.08;0.08;;;;;;;16.64;62.58;102268.19;5070100;28;20237;-77
2023/06/07 06:34:10;;;;;;;0.30;0.30;;;;;;;16.75;62.50;102265.28;5082517;28;20501;-78
2023/06/07 06:36:36;;;;;;;0.10;0.10;;;;;;;16.78;62.08;102268.72;5082483;28;20056;-78
2023/06/07 06:39:03;;;;;;;0.17;0.17;;;;;;;16.75;61.07;102282.19;5078426;28;20082;-79
2023/06/07 06:41:30;;;;;;;0.10;0.10;;;;;;;16.79;61.27;102275.84;5074750;28;20063;-78
2023/06/07 06:43:57;;;;;;;0.10;0.10;;;;;;;16.86;61.46;102281.97;5082050;28;20116;-79
2023/06/07 06:46:23;;;;;;;0.10;0.10;;;;;;;16.85;61.31;102282.88;5075286;28;20031;-77
2023/06/07 06:48:49;;;;;;;0.15;0.15;;;;;;;16.86;60.83;102283.75;5091693;28;20032;-79
2023/06/07 06:51:15;;;;;;;0.30;0.30;;;;;;;16.89;60.96;102284.56;5077448;28;20031;-79
2023/06/07 06:53:41;;;;;;;0.20;0.20;;;;;;;16.94;61.09;102287.16;5076013;28;20032;-78
2023/06/07 06:56:07;;;;;;;1.17;1.08;;;;;;;16.95;60.56;102288.94;5078745;28;20139;-78
2023/06/07 06:58:35;;;;;;;6.13;1.65;;;;;;;16.93;60.40;102280.03;5070420;28;20520;-75
2023/06/07 07:01:02;;;;;;;0.10;0.10;;;;;;;16.97;60.43;102287.97;5068253;28;20409;-76
2023/06/07 07:03:28;;;;;;;0.00;0.00;;;;;;;17.02;60.48;102289.66;5073764;28;20028;-78
2023/06/07 07:05:55;;;;;;;0.73;0.73;;;;;;;17.04;60.21;102285.16;5071408;28;20169;-79
2023/06/07 07:08:21;;;;;;;0.52;0.52;;;;;;;17.02;60.51;102284.28;5071012;28;20059;-79
2023/06/07 07:10:47;;;;;;;0.08;0.08;;;;;;;17.05;60.59;102286.91;5067859;28;20630;-78
2023/06/07 07:13:15;;;;;;;0.15;0.15;;;;;;;16.94;60.58;102271.09;5068487;28;20021;-76
2023/06/07 07:15:41;;;;;;;0.00;0.00;;;;;;;17.02;60.34;102285.16;5094306;28;20027;-78
2023/06/07 07:18:08;;;;;;;0.10;0.10;;;;;;;17.00;60.72;102286.13;5075906;28;20060;-77
2023/06/07 07:20:35;;;;;;;1.75;1.65;;;;;;;16.98;60.47;102275.44;5075540;28;20081;-77
2023/06/07 07:23:02;;;;;;;0.20;0.20;;;;;;;17.01;60.59;102283.44;5077482;28;20052;-77
2023/06/07 07:25:29;;;;;;;0.10;0.10;;;;;;;17.03;60.17;102280.69;5076542;28;20486;-77
2023/06/07 07:27:55;;;;;;;0.10;0.10;;;;;;;17.00;60.35;102278.97;5071402;28;20055;-78
2023/06/07 07:30:21;;;;;;;0.10;0.10;;;;;;;17.06;60.14;102281.50;5077626;28;20112;-76
2023/06/07 07:32:47;;;;;;;0.30;0.30;;;;;;;17.15;60.81;102269.69;5080158;28;20036;-78
2023/06/07 07:35:13;;;;;;;0.20;0.20;;;;;;;17.29;60.61;102277.38;5089933;28;20029;-78
2023/06/07 07:37:39;;;;;;;0.20;0.20;;;;;;;17.43;60.01;102275.25;5091446;28;20034;-79
2023/06/07 07:40:10;;;;;;;0.15;0.15;;;;;;;17.52;59.61;102283.94;5083131;28;20105;-78
2023/06/07 07:42:37;;;;;;;0.10;0.10;;;;;;;17.65;59.03;102280.00;5089754;28;20115;-77
2023/06/07 07:45:03;;;;;;;0.10;0.10;;;;;;;17.74;59.71;102276.22;5082307;28;20443;-80
2023/06/07 07:47:29;;;;;;;0.00;0.00;;;;;;;17.74;59.18;102279.75;5076778;28;20059;-78
2023/06/07 07:49:56;;;;;;;0.30;0.30;;;;;;;17.75;58.77;102286.88;5073896;28;20033;-77
2023/06/07 07:52:22;;;;;;;0.10;0.10;;;;;;;17.78;58.42;102285.91;5082103;28;20028;-77
2023/06/07 07:54:48;;;;;;;0.90;0.57;;;;;;;17.91;59.03;102292.72;5081699;28;20029;-77
2023/06/07 07:57:14;;;;;;;0.10;0.10;;;;;;;17.92;58.92;102289.09;5071108;28;20409;-77
2023/06/07 07:59:40;;;;;;;1.10;0.98;;;;;;;17.90;57.81;102284.72;5071950;28;20401;-77
2023/06/07 08:02:07;;;;;;;0.10;0.10;;;;;;;18.00;58.93;102283.56;5072431;28;20069;-76
2023/06/07 08:04:33;;;;;;;0.10;0.10;;;;;;;18.15;58.52;102284.06;5081206;28;20021;-76
2023/06/07 08:07:00;;;;;;;0.25;0.25;;;;;;;18.14;58.21;102282.28;5087279;28;20047;-77
2023/06/07 08:09:26;;;;;;;0.00;0.00;;;;;;;18.28;58.30;102277.41;5070485;28;20027;-76
2023/06/07 08:11:52;;;;;;;0.10;0.10;;;;;;;18.23;57.50;102282.00;5060083;28;20051;-76
2023/06/07 08:14:18;;;;;;;0.10;0.10;;;;;;;18.42;57.94;102271.63;5064834;28;20025;-76
2023/06/07 08:16:45;;;;;;;0.10;0.10;;;;;;;18.48;57.40;102274.13;5068194;28;20406;-77
2023/06/07 08:19:11;;;;;;;0.00;0.00;;;;;;;18.61;57.02;102277.31;5082950;28;20035;-75
2023/06/07 08:21:37;;;;;;;0.10;0.10;;;;;;;18.69;57.37;102274.38;5078757;28;20031;-76
2023/06/07 08:24:04;;;;;;;0.20;0.20;;;;;;;18.73;56.58;102274.22;5072134;28;20024;-77
2023/06/07 08:26:30;;;;;;;0.20;0.20;;;;;;;18.82;57.01;102275.75;5071513;28;20016;-77
2023/06/07 08:28:56;;;;;;;0.03;0.03;;;;;;;18.92;55.85;102276.38;5071737;28;20036;-78
2023/06/07 08:31:22;;;;;;;0.08;0.08;;;;;;;18.90;54.68;102272.81;5072423;28;20090;-77
2023/06/07 08:33:49;;;;;;;0.30;0.30;;;;;;;18.98;56.46;102273.47;5071763;28;20699;-77
2023/06/07 08:36:15;;;;;;;0.10;0.10;;;;;;;18.97;55.04;102274.41;5071030;28;20032;-77
2023/06/07 08:38:42;;;;;;;0.10;0.10;;;;;;;19.07;55.15;102267.78;5071942;28;20024;-76
2023/06/07 08:41:09;;;;;;;0.10;0.10;;;;;;;19.01;54.09;102270.69;5070822;28;20051;-77
2023/06/07 08:43:36;;;;;;;0.10;0.10;;;;;;;19.08;55.28;102263.31;5071643;28;20029;-77
2023/06/07 08:46:04;;;;;;;0.10;0.10;;;;;;;19.13;55.20;102271.19;5069197;28;20032;-77
2023/06/07 08:48:34;;;;;;;0.00;0.00;;;;;;;19.21;55.22;102277.22;5071283;28;20086;-77
2023/06/07 08:51:01;;;;;;;0.10;0.10;;;;;;;19.31;54.86;102267.91;5071490;28;20409;-77
2023/06/07 08:53:33;;;;;;;0.10;0.10;;;;;;;19.33;54.40;102268.72;5071565;28;20059;-77
2023/06/07 08:56:00;;;;;;;;;;;;;;;19.54;54.05;102269.81;5069359;28;20039;-77
2023/06/07 08:58:27;;;;;;;0.30;0.30;;;;;;;19.58;54.60;102275.94;5071523;28;20433;-77
2023/06/07 09:00:57;;;;;;;0.63;0.63;;;;;;;19.54;52.94;102277.88;5069670;28;20040;-77
2023/06/07 09:03:23;;;;;;;3.53;1.30;;;;;;;19.79;54.08;102278.78;5069790;28;20182;-77
2023/06/07 09:05:55;;;;;;;1.23;0.82;;;;;;;19.91;53.64;102270.31;5065201;28;20028;-76
2023/06/07 09:08:21;;;;;;;0.10;0.10;;;;;;;19.97;52.46;102274.59;5070454;28;20032;-77
2023/06/07 09:10:47;;;;;;;0.30;0.30;;;;;;;20.00;53.02;102277.16;5067471;28;20103;-77
2023/06/07 09:13:21;;;;;;;0.47;0.47;;;;;;;20.16;52.52;102277.47;5070354;28;20028;-77
2023/06/07 09:15:49;;;;;;;0.40;0.40;;;;;;;20.19;52.24;102283.63;5069466;28;20032;-77
2023/06/07 09:18:16;;;;;;;0.20;0.20;;;;;;;20.08;52.14;102280.47;5070786;28;20028;-77
2023/06/07 09:20:42;;;;;;;0.10;0.10;;;;;;;20.07;50.93;102273.31;5070247;28;20355;-77
2023/06/07 09:23:11;;;;;;;3.15;2.13;;;;;;;20.02;52.29;102276.16;5074258;28;20584;-77
2023/06/07 09:25:37;;;;;;;0.30;0.30;;;;;;;20.01;52.73;102274.44;5069571;28;20052;-77
2023/06/07 09:28:13;;;;;;;1.27;1.25;;;;;;;20.09;52.62;102273.25;5070171;28;20024;-77
2023/06/07 09:31:00;;;;;;;1.00;0.93;;;;;;;20.25;52.23;102266.38;5069986;28;20020;-77
2023/06/07 09:33:33;;;;;;;0.20;0.20;;;;;;;20.30;52.88;102261.69;5065278;28;20478;-77
2023/06/07 09:36:15;;;;;;;1.65;0.85;;;;;;;20.52;52.49;102258.16;5068845;28;20048;-77
2023/06/07 09:38:42;;;;;;;0.57;0.57;;;;;;;20.47;51.30;102260.16;5063130;28;20078;-77
2023/06/07 09:41:10;;;;;;;0.43;0.43;;;;;;;20.61;51.53;102260.50;5063214;28;20056;-76
2023/06/07 09:43:46;;;;;;;0.57;0.57;;;;;;;20.75;51.87;102261.78;5068196;28;20195;-76
2023/06/07 09:46:14;;;;;;;0.10;0.10;;;;;;;20.88;52.22;102263.03;5068849;28;20095;-77
2023/06/07 09:48:45;;;;;;;1.02;0.93;;;;;;;21.09;51.83;102257.72;5059659;28;20047;-76
2023/06/07 09:51:11;;;;;;;0.13;0.13;;;;;;;21.15;50.64;102257.44;5062794;28;20108;-77
2023/06/07 09:53:58;;;;;;;0.95;0.95;;;;;;;21.32;50.10;102254.00;5070921;28;20180;-77
2023/06/07 09:56:24;;;;;;;0.10;0.10;;;;;;;21.32;50.49;102254.91;5069146;28;20048;-77
2023/06/07 09:59:09;;;;;;;0.10;0.10;;;;;;;21.54;50.85;102256.66;5070451;28;20142;-77
2023/06/07 10:01:42;;;;;;;0.10;0.10;;;;;;;21.58;49.68;102252.03;5071295;28;20042;-76
2023/06/07 10:04:09;;;;;;;0.43;0.43;;;;;;;21.61;49.87;102254.63;5070533;28;20064;-76
2023/06/07 10:06:42;;;;;;;0.45;0.45;;;;;;;21.84;49.26;102250.00;5065024;28;20036;-77
2023/06/07 10:09:09;;;;;;;0.10;0.10;;;;;;;21.82;50.45;102252.78;5066166;28;20020;-74
2023/06/07 10:11:37;;;;;;;0.57;0.57;;;;;;;21.88;49.48;102247.13;5068412;28;20031;-77
2023/06/07 10:16:48;;;;;;;0.47;0.47;;;;;;;21.97;48.92;102249.38;5073429;28;20384;-79
2023/06/07 10:19:29;;;;;;;0.10;0.10;;;;;;;22.11;48.10;102247.88;5049745;28;20037;-77
2023/06/07 10:21:57;;;;;;;0.25;0.25;;;;;;;22.09;48.87;102244.34;5045444;28;20491;-78
2023/06/07 10:24:29;;;;;;;0.10;0.10;;;;;;;22.18;48.78;102253.84;5042219;28;20109;-77
2023/06/07 10:27:01;;;;;;;0.10;0.10;;;;;;;22.23;48.60;102247.31;5041490;28;20057;-77
2023/06/07 10:29:53;;;;;;;4.20;1.77;;;;;;;22.39;47.77;102246.59;5046145;28;20048;-77
2023/06/07 10:32:27;;;;;;;1.30;1.23;;;;;;;22.51;48.99;102246.00;5046745;28;20037;-78
2023/06/07 10:34:55;;;;;;;0.10;0.10;;;;;;;22.58;48.20;102246.56;5049655;28;20280;-76
2023/06/07 10:37:22;;;;;;;0.40;0.40;;;;;;;22.65;48.66;102247.16;5052910;28;20083;-75
2023/06/07 10:39:49;;;;;;;3.30;1.65;;;;;;;22.81;47.68;102248.16;5046147;28;20056;-78
2023/06/07 10:42:16;;;;;;;0.10;0.10;;;;;;;22.93;47.55;102239.44;5043795;28;20044;-76
2023/06/07 10:44:43;;;;;;;0.10;0.10;;;;;;;22.96;46.56;102234.84;5051450;28;20406;-78
2023/06/07 10:47:30;;;;;;;0.30;0.30;;;;;;;23.13;46.67;102231.25;5051127;28;20075;-77
2023/06/07 10:49:57;;;;;;;0.08;0.08;;;;;;;23.14;46.88;102233.00;5051786;28;20039;-78
2023/06/07 10:52:26;;;;;;;0.00;0.00;;;;;;;23.15;46.07;102223.97;5051662;28;20017;-77
2023/06/07 10:54:52;;;;;;;0.10;0.10;;;;;;;23.24;46.46;102228.91;5052664;28;20028;-78
2023/06/07 10:57:35;;;;;;;0.10;0.10;;;;;;;23.43;47.16;102226.13;5051259;28;20083;-78
2023/06/07 11:00:28;;;;;;;0.10;0.10;;;;;;;23.39;47.23;102216.41;5052411;28;20087;-77
2023/06/07 11:08:31;;;;;;;0.20;0.20;;;;;;;23.53;47.16;102215.72;5098158;27;20794;-78
2023/06/07 11:11:00;;;;;;;0.70;0.70;;;;;;;23.57;46.70;102223.56;5092650;28;20036;-78
2023/06/07 11:19:09;;;;;;;0.55;0.55;;;;;;;23.96;45.98;102209.81;5062310;28;20399;-78
2023/06/07 11:24:35;;;;;;;0.10;0.10;;;;;;;23.99;45.12;102212.34;5071374;28;20049;-78
2023/06/07 11:27:01;;;;;;;0.10;0.10;;;;;;;24.03;44.28;102205.81;5046612;28;20026;-77
2023/06/07 11:29:28;;;;;;;0.10;0.10;;;;;;;23.96;44.27;102210.69;5039904;28;20040;-77
2023/06/07 11:32:02;;;;;;;0.63;0.63;;;;;;;24.01;45.28;102203.22;5037502;28;20025;-78
2023/06/07 11:34:30;;;;;;;0.30;0.30;;;;;;;24.09;44.96;102208.19;5038859;28;20057;-78
2023/06/07 11:37:14;;;;;;;0.10;0.10;;;;;;;24.16;44.71;102203.28;5041049;28;20017;-77
2023/06/07 11:39:40;;;;;;;0.30;0.30;;;;;;;24.26;45.06;102203.66;5033792;28;20053;-78
2023/06/07 11:42:07;;;;;;;1.23;1.15;;;;;;;24.33;44.68;102199.66;5032814;28;20036;-78
2023/06/07 11:44:34;;;;;;;0.32;0.32;;;;;;;24.32;43.96;102200.59;5033593;28;20545;-79
2023/06/07 11:47:05;;;;;;;0.10;0.10;;;;;;;24.45;43.36;102196.25;5031353;28;20033;-78
2023/06/07 11:49:33;;;;;;;0.30;0.27;;;;;;;24.57;44.27;102193.78;5034540;28;20025;-78
2023/06/07 11:51:59;;;;;;;0.52;0.52;;;;;;;24.63;42.34;102188.88;5037084;28;20037;-78
2023/06/07 11:54:25;;;;;;;0.20;0.20;;;;;;;24.68;42.26;102197.63;5041167;28;20102;-78
2023/06/07 11:56:53;;;;;;;24.85;1.27;;;;;;;24.82;44.46;102194.13;5041312;28;20495;-78
2023/06/07 11:59:22;;;;;;;1.10;0.35;;;;;;;24.89;43.64;102199.19;5048797;28;20021;-78
2023/06/07 12:01:52;;;;;;;0.28;0.28;;;;;;;24.93;41.90;102192.59;5047286;28;20026;-78